Time;durP1;ratioP1;P1;durP2;ratioP2;P2;SDS_P1;SDS_P2;PMS_P1;PMS_P2;Temp;Humidity;BMP_temperature;BMP_pressure;BME280_temperature;BME280_humidity;BME280_pressure;Samples;Min_cycle;Max_cycle;Signal;HPM_P1;HPM_P2
2023/10/21 00:00:29;;;;;;;15.18;3.88;;;17.30;99.90;;;;;;4228411;28;20032;-59
2023/10/21 00:02:30;;;;;;;12.65;3.63;;;17.20;99.90;;;;;;4228616;28;20048;-60
2023/10/21 00:04:31;;;;;;;12.65;3.40;;;17.20;99.90;;;;;;4228639;28;20073;-60
2023/10/21 00:06:33;;;;;;;15.52;3.65;;;17.20;99.90;;;;;;4227882;28;20031;-59
2023/10/21 00:08:34;;;;;;;15.20;4.72;;;17.10;99.90;;;;;;4228722;28;20085;-59
2023/10/21 00:10:35;;;;;;;13.73;4.20;;;17.20;99.90;;;;;;4227810;27;20039;-59
2023/10/21 00:12:38;;;;;;;15.30;4.15;;;17.10;99.90;;;;;;4228700;28;20108;-56
2023/10/21 00:14:39;;;;;;;11.70;3.90;;;17.00;99.90;;;;;;4227749;28;20092;-60
2023/10/21 00:16:40;;;;;;;13.68;3.78;;;17.00;99.90;;;;;;4228652;28;20141;-59
2023/10/21 00:18:42;;;;;;;13.25;4.22;;;17.00;99.90;;;;;;4227847;27;20084;-58
2023/10/21 00:20:43;;;;;;;12.77;4.85;;;17.00;99.90;;;;;;4229192;28;20024;-59
2023/10/21 00:22:44;;;;;;;17.42;4.40;;;17.00;99.90;;;;;;4227979;27;20059;-60
2023/10/21 00:24:45;;;;;;;14.52;3.75;;;17.00;99.90;;;;;;4228408;28;20476;-56
2023/10/21 00:26:48;;;;;;;17.27;4.30;;;17.00;99.90;;;;;;4227404;28;20089;-59
2023/10/21 00:28:49;;;;;;;10.57;3.78;;;17.10;99.90;;;;;;4228627;27;20080;-59
2023/10/21 00:30:50;;;;;;;12.10;3.65;;;16.90;99.90;;;;;;4227780;28;20073;-59
2023/10/21 00:32:51;;;;;;;9.43;4.07;;;17.00;99.90;;;;;;4228297;28;20065;-60
2023/10/21 00:34:53;;;;;;;15.13;4.28;;;17.10;99.90;;;;;;4228336;27;20088;-60
2023/10/21 00:36:54;;;;;;;14.65;4.05;;;16.90;99.90;;;;;;4227532;28;20061;-59
2023/10/21 00:38:55;;;;;;;16.88;2.92;;;16.70;99.90;;;;;;4228358;28;20521;-58
2023/10/21 00:40:57;;;;;;;11.50;3.00;;;16.80;99.90;;;;;;4227505;27;20032;-58
2023/10/21 00:42:58;;;;;;;16.02;4.18;;;17.10;99.90;;;;;;4228398;28;20410;-59
2023/10/21 00:45:03;;;;;;;15.15;4.13;;;17.10;99.90;;;;;;4227408;27;20073;-59
2023/10/21 00:47:04;;;;;;;13.18;4.35;;;17.00;99.90;;;;;;4228520;28;20112;-59
2023/10/21 00:49:06;;;;;;;9.30;3.38;;;16.90;99.90;;;;;;4227125;28;20024;-59
2023/10/21 00:51:09;;;;;;;16.27;4.30;;;16.80;99.90;;;;;;4228779;27;20032;-59
2023/10/21 00:53:10;;;;;;;14.35;4.88;;;16.70;99.90;;;;;;4227211;27;20044;-58
2023/10/21 00:55:12;;;;;;;13.32;4.70;;;16.70;99.90;;;;;;4228386;27;20441;-59
2023/10/21 00:57:14;;;;;;;16.08;5.07;;;16.60;99.90;;;;;;4226737;28;20039;-59
2023/10/21 00:59:16;;;;;;;11.77;5.18;;;16.40;99.90;;;;;;4228079;28;20035;-59
2023/10/21 01:01:17;;;;;;;14.50;4.95;;;16.10;99.90;;;;;;4226951;28;20108;-58
2023/10/21 01:03:19;;;;;;;13.73;4.32;;;15.90;99.90;;;;;;4227598;28;20035;-59
2023/10/21 01:05:21;;;;;;;16.73;4.53;;;15.70;99.90;;;;;;4226447;28;20164;-57
2023/10/21 01:07:22;;;;;;;11.15;4.00;;;15.50;99.90;;;;;;4227600;28;20036;-59
2023/10/21 01:09:23;;;;;;;15.45;4.60;;;15.60;99.90;;;;;;4227700;28;20027;-59
2023/10/21 01:11:25;;;;;;;18.88;4.43;;;15.60;99.90;;;;;;4226690;28;20039;-59
2023/10/21 01:13:26;;;;;;;9.60;4.30;;;15.60;99.90;;;;;;4227651;28;20168;-58
2023/10/21 01:15:27;;;;;;;12.88;4.43;;;15.60;99.90;;;;;;4226701;28;20077;-59
2023/10/21 01:17:29;;;;;;;11.35;4.28;;;15.70;99.90;;;;;;4227677;28;20044;-57
2023/10/21 01:19:31;;;;;;;10.77;4.07;;;15.80;99.90;;;;;;4226889;28;20043;-59
2023/10/21 01:21:33;;;;;;;17.10;4.53;;;15.70;99.90;;;;;;4227968;28;20048;-58
2023/10/21 01:23:34;;;;;;;11.30;4.45;;;15.70;99.90;;;;;;4226523;28;20815;-59
2023/10/21 01:25:35;;;;;;;16.52;4.75;;;15.70;99.90;;;;;;4227880;28;20108;-59
2023/10/21 01:27:37;;;;;;;13.05;4.45;;;15.70;99.90;;;;;;4226738;28;20112;-57
2023/10/21 01:29:38;;;;;;;16.85;4.88;;;15.70;99.90;;;;;;4227793;28;20353;-59
2023/10/21 01:31:39;;;;;;;9.75;3.80;;;15.70;99.90;;;;;;4226553;28;20044;-58
2023/10/21 01:33:40;;;;;;;12.35;3.92;;;15.60;99.90;;;;;;4227342;28;20045;-59
2023/10/21 01:35:43;;;;;;;17.55;4.95;;;15.60;99.90;;;;;;4226884;28;20048;-58
2023/10/21 01:37:45;;;;;;;13.35;5.03;;;15.70;99.90;;;;;;4227145;28;20081;-59
2023/10/21 01:39:46;;;;;;;9.55;4.50;;;15.60;99.90;;;;;;4227173;28;20036;-58
2023/10/21 01:41:47;;;;;;;14.63;4.90;;;15.50;99.90;;;;;;4226570;28;20798;-59
2023/10/21 01:43:49;;;;;;;10.05;4.00;;;15.40;99.90;;;;;;4227258;28;20484;-59
2023/10/21 01:45:50;;;;;;;15.32;4.43;;;15.40;99.90;;;;;;4226663;28;20035;-59
2023/10/21 01:47:51;;;;;;;15.02;3.88;;;15.40;99.90;;;;;;4227700;28;20100;-58
2023/10/21 01:49:53;;;;;;;13.38;5.00;;;15.70;99.90;;;;;;4227071;28;20077;-59
2023/10/21 01:51:54;;;;;;;12.10;5.10;;;15.80;99.90;;;;;;4227699;28;20050;-59
2023/10/21 01:53:55;;;;;;;14.98;3.50;;;15.70;99.90;;;;;;4226596;28;20400;-59
2023/10/21 01:56:03;;;;;;;8.48;3.03;;;16.00;99.90;;;;;;4227812;28;20088;-58
2023/10/21 01:58:04;;;;;;;7.43;2.90;;;16.30;99.90;;;;;;4226255;28;20390;-58
2023/10/21 02:00:10;;;;;;;10.85;3.92;;;16.60;99.90;;;;;;4227570;28;20027;-59
2023/10/21 02:02:11;;;;;;;16.20;3.80;;;17.00;99.90;;;;;;4226216;28;20508;-58
2023/10/21 02:04:12;;;;;;;11.75;3.63;;;17.00;99.90;;;;;;4225999;28;20089;-59
2023/10/21 02:06:13;;;;;;;10.48;3.95;;;16.90;99.90;;;;;;4226567;28;20040;-57
2023/10/21 02:08:14;;;;;;;13.25;3.97;;;16.70;99.90;;;;;;4227040;28;20032;-59
2023/10/21 02:10:19;;;;;;;11.45;3.28;;;16.60;99.90;;;;;;4226665;28;20390;-59
2023/10/21 02:12:20;;;;;;;15.80;3.40;;;16.90;99.90;;;;;;4226968;28;20019;-58
2023/10/21 02:14:22;;;;;;;10.40;3.53;;;17.30;99.90;;;;;;4227044;28;20020;-59
2023/10/21 02:16:24;;;;;;;12.75;3.17;;;17.40;99.90;;;;;;4228167;28;20104;-59
2023/10/21 02:18:25;;;;;;;8.55;2.90;;;17.50;99.90;;;;;;4230696;27;20040;-59
2023/10/21 02:20:26;;;;;;;7.70;3.30;;;17.60;99.90;;;;;;4230184;28;20084;-59
2023/10/21 02:22:27;;;;;;;9.45;3.65;;;17.60;99.90;;;;;;4230804;28;20127;-59
2023/10/21 02:24:28;;;;;;;11.77;3.40;;;17.40;99.90;;;;;;4229224;28;20073;-59
2023/10/21 02:26:30;;;;;;;6.55;2.80;;;17.40;99.90;;;;;;4230907;28;20058;-59
2023/10/21 02:28:31;;;;;;;13.73;3.33;;;17.50;99.90;;;;;;4229554;28;20023;-59
2023/10/21 02:30:34;;;;;;;10.52;2.95;;;17.60;99.90;;;;;;4230683;28;20032;-59
2023/10/21 02:32:37;;;;;;;13.10;3.95;;;17.50;99.90;;;;;;4229747;27;20888;-59
2023/10/21 02:34:38;;;;;;;8.38;2.70;;;17.50;99.90;;;;;;4230612;28;20062;-59
2023/10/21 02:36:39;;;;;;;9.85;3.22;;;17.50;99.90;;;;;;4229344;27;20023;-60
2023/10/21 02:38:41;;;;;;;15.23;3.90;;;17.50;99.90;;;;;;4230199;28;20117;-60
2023/10/21 02:40:42;;;;;;;8.18;2.92;;;17.50;99.90;;;;;;4228869;28;20080;-59
2023/10/21 02:42:44;;;;;;;19.73;4.40;;;17.50;99.90;;;;;;4229959;28;20031;-60
2023/10/21 02:44:45;;;;;;;10.70;2.95;;;17.40;99.90;;;;;;4229747;28;20078;-60
2023/10/21 02:46:48;;;;;;;19.30;4.32;;;17.30;99.90;;;;;;4229371;28;20553;-59
2023/10/21 02:48:49;;;;;;;11.55;3.75;;;17.10;99.90;;;;;;4230065;28;20092;-60
2023/10/21 02:50:50;;;;;;;10.25;4.07;;;17.00;99.90;;;;;;4229686;28;20575;-60
2023/10/21 02:52:51;;;;;;;9.32;4.15;;;16.80;99.90;;;;;;4230645;27;20085;-60
2023/10/21 02:54:52;;;;;;;10.00;3.92;;;16.60;99.90;;;;;;4228837;28;20108;-60
2023/10/21 02:56:53;;;;;;;13.23;3.67;;;16.50;99.90;;;;;;4230207;28;20134;-60
2023/10/21 02:58:55;;;;;;;8.20;3.33;;;16.50;99.90;;;;;;4228881;28;20073;-59
2023/10/21 03:00:56;;;;;;;12.73;4.38;;;16.30;99.90;;;;;;4230012;28;20027;-60
2023/10/21 03:02:57;;;;;;;16.23;4.60;;;16.20;99.90;;;;;;4228968;27;20565;-58
2023/10/21 03:04:59;;;;;;;15.95;4.63;;;16.20;99.90;;;;;;4230359;28;20449;-60
2023/10/21 03:07:01;;;;;;;10.13;3.20;;;16.20;99.90;;;;;;4229137;28;20035;-59
2023/10/21 03:09:06;;;;;;;14.23;3.85;;;16.10;99.90;;;;;;4229805;28;20027;-59
2023/10/21 03:11:08;;;;;;;10.60;3.42;;;16.00;99.90;;;;;;4228788;28;20088;-60
2023/10/21 03:13:09;;;;;;;11.38;3.10;;;15.90;99.90;;;;;;4229643;27;20092;-59
2023/10/21 03:15:10;;;;;;;12.55;3.63;;;16.00;99.90;;;;;;4229411;28;20032;-59
2023/10/21 03:17:14;;;;;;;11.45;3.58;;;15.90;99.90;;;;;;4229272;28;20048;-59
2023/10/21 03:19:15;;;;;;;9.38;3.78;;;15.90;99.90;;;;;;4229747;27;20077;-59
2023/10/21 03:21:16;;;;;;;10.45;2.97;;;15.90;99.90;;;;;;4229272;28;20076;-60
2023/10/21 03:23:18;;;;;;;12.35;3.80;;;15.90;99.90;;;;;;4229570;28;20055;-59
2023/10/21 03:25:19;;;;;;;10.07;3.50;;;16.00;99.90;;;;;;4228627;28;20118;-57
2023/10/21 03:27:20;;;;;;;11.82;4.25;;;16.00;99.90;;;;;;4229453;27;20040;-59
2023/10/21 03:29:21;;;;;;;15.63;4.13;;;15.90;99.90;;;;;;4228715;28;20036;-58
2023/10/21 03:31:23;;;;;;;19.48;5.13;;;15.70;99.90;;;;;;4229578;28;20496;-59
2023/10/21 03:33:26;;;;;;;12.77;4.50;;;15.60;99.90;;;;;;4228650;28;20401;-60
2023/10/21 03:35:27;;;;;;;12.95;4.18;;;15.60;99.90;;;;;;4229438;28;20430;-59
2023/10/21 03:37:28;;;;;;;11.55;4.70;;;15.50;99.90;;;;;;4228462;28;20465;-61
2023/10/21 03:39:31;;;;;;;16.90;3.60;;;15.50;99.90;;;;;;4229457;28;20020;-60
2023/10/21 03:41:32;;;;;;;16.42;3.45;;;15.50;99.90;;;;;;4228584;27;20036;-62
2023/10/21 03:43:34;;;;;;;11.40;3.33;;;15.40;99.90;;;;;;4229507;28;20047;-61
2023/10/21 03:45:39;;;;;;;12.52;3.58;;;15.50;99.90;;;;;;4228729;27;20085;-60
2023/10/21 03:47:40;;;;;;;11.82;4.25;;;15.50;99.90;;;;;;4228494;27;20070;-62
2023/10/21 03:49:41;;;;;;;14.80;4.20;;;15.40;99.90;;;;;;4227006;28;20089;-57
2023/10/21 03:51:42;;;;;;;18.90;4.20;;;15.40;99.90;;;;;;4229091;28;20027;-60
2023/10/21 03:53:43;;;;;;;10.73;3.60;;;15.40;99.90;;;;;;4228792;28;20486;-60
2023/10/21 03:55:45;;;;;;;12.57;4.00;;;15.30;99.90;;;;;;4228173;28;20027;-61
2023/10/21 03:57:49;;;;;;;16.60;4.60;;;15.30;99.90;;;;;;4229284;27;20051;-60
2023/10/21 03:59:50;;;;;;;10.18;4.13;;;15.20;99.90;;;;;;4227966;27;20052;-62
2023/10/21 04:01:51;;;;;;;17.45;4.97;;;15.10;99.90;;;;;;4228994;28;20437;-60
2023/10/21 04:03:52;;;;;;;9.23;4.00;;;15.00;99.90;;;;;;4228030;27;20112;-61
2023/10/21 04:05:54;;;;;;;18.25;4.90;;;15.00;99.90;;;;;;4228980;28;20080;-59
2023/10/21 04:07:55;;;;;;;12.32;4.50;;;14.90;99.90;;;;;;4227660;27;20112;-60
2023/10/21 04:09:56;;;;;;;13.80;5.18;;;14.90;99.90;;;;;;4228825;27;20108;-58
2023/10/21 04:11:57;;;;;;;16.13;5.22;;;14.80;99.90;;;;;;4227926;28;20024;-59
2023/10/21 04:13:58;;;;;;;16.95;6.40;;;14.70;99.90;;;;;;4229107;28;20024;-62
2023/10/21 04:16:00;;;;;;;16.25;4.43;;;14.60;99.90;;;;;;4227973;28;20023;-60
2023/10/21 04:18:01;;;;;;;17.85;4.93;;;14.60;99.90;;;;;;4228766;27;20104;-60
2023/10/21 04:20:03;;;;;;;14.60;4.57;;;14.60;99.90;;;;;;4228370;28;20072;-59
2023/10/21 04:22:04;;;;;;;20.48;5.05;;;14.60;99.90;;;;;;4228383;28;20019;-59
2023/10/21 04:24:06;;;;;;;20.20;7.65;;;14.50;99.90;;;;;;4228069;28;20155;-59
2023/10/21 04:26:08;;;;;;;17.92;6.45;;;14.30;99.90;;;;;;4227694;27;20059;-60
2023/10/21 04:28:10;;;;;;;17.45;6.90;;;14.20;99.90;;;;;;4228524;28;20541;-59
2023/10/21 04:30:11;;;;;;;13.50;5.80;;;14.10;99.90;;;;;;4227776;27;20057;-59
2023/10/21 04:32:13;;;;;;;19.70;7.00;;;14.00;99.90;;;;;;4228517;28;20101;-59
2023/10/21 04:34:14;;;;;;;16.52;6.22;;;13.90;99.90;;;;;;4227671;27;20043;-60
2023/10/21 04:36:18;;;;;;;17.50;6.30;;;13.90;99.90;;;;;;4228340;28;20081;-56
2023/10/21 04:38:19;;;;;;;16.00;6.07;;;13.80;99.90;;;;;;4227273;28;20066;-58
2023/10/21 04:40:20;;;;;;;14.48;6.93;;;13.80;99.90;;;;;;4228359;28;20445;-58
2023/10/21 04:42:23;;;;;;;17.48;7.57;;;13.70;99.90;;;;;;4227227;27;20143;-59
2023/10/21 04:44:24;;;;;;;20.15;6.82;;;13.70;99.90;;;;;;4228459;28;20036;-58
2023/10/21 04:46:25;;;;;;;15.27;4.10;;;13.70;99.90;;;;;;4227086;28;20109;-61
2023/10/21 04:48:26;;;;;;;19.03;5.23;;;13.60;99.90;;;;;;4227996;28;20131;-59
2023/10/21 04:50:28;;;;;;;13.37;5.73;;;13.70;99.90;;;;;;4227576;28;20023;-59
2023/10/21 04:52:29;;;;;;;23.13;6.45;;;13.80;99.90;;;;;;4228021;28;20080;-58
2023/10/21 04:54:30;;;;;;;18.08;5.90;;;13.80;99.90;;;;;;4227411;28;20057;-60
2023/10/21 04:56:31;;;;;;;23.85;7.63;;;13.70;99.90;;;;;;4227308;28;20452;-59
2023/10/21 04:58:33;;;;;;;14.00;6.30;;;13.70;99.90;;;;;;4227897;28;20039;-59
2023/10/21 05:00:34;;;;;;;14.68;5.88;;;13.60;99.90;;;;;;4227012;28;20043;-60
2023/10/21 05:02:35;;;;;;;16.70;5.73;;;13.50;99.90;;;;;;4227958;28;20040;-59
2023/10/21 05:04:36;;;;;;;20.07;6.67;;;13.50;99.90;;;;;;4227170;28;20048;-60
2023/10/21 05:06:38;;;;;;;19.90;7.57;;;13.40;99.90;;;;;;4228216;27;20032;-59
2023/10/21 05:08:39;;;;;;;18.20;5.87;;;13.40;99.90;;;;;;4226728;28;20057;-59
2023/10/21 05:10:40;;;;;;;9.40;5.27;;;13.30;99.90;;;;;;4227930;28;20390;-57
2023/10/21 05:12:41;;;;;;;17.10;6.60;;;13.30;99.90;;;;;;4226646;28;20064;-60
2023/10/21 05:14:42;;;;;;;17.97;7.30;;;13.20;99.90;;;;;;4227912;28;20081;-58
2023/10/21 05:16:43;;;;;;;20.20;6.50;;;13.10;99.90;;;;;;4226665;28;20061;-59
2023/10/21 05:18:44;;;;;;;17.30;6.10;;;13.20;99.90;;;;;;4227771;28;20032;-59
2023/10/21 05:20:46;;;;;;;17.30;7.07;;;13.30;99.90;;;;;;4227105;28;20077;-60
2023/10/21 05:22:47;;;;;;;17.80;7.03;;;13.40;99.90;;;;;;4227388;28;20035;-59
2023/10/21 05:24:48;;;;;;;24.07;7.63;;;13.50;99.90;;;;;;4226972;28;20448;-59
2023/10/21 05:26:49;;;;;;;21.17;7.57;;;13.60;99.90;;;;;;4227182;28;20073;-59
2023/10/21 05:28:50;;;;;;;20.80;6.83;;;13.70;99.90;;;;;;4227640;28;20108;-59
2023/10/21 05:30:51;;;;;;;22.27;7.07;;;13.80;99.90;;;;;;4226778;28;20024;-59
2023/10/21 05:32:52;;;;;;;17.63;7.40;;;14.00;99.90;;;;;;4227637;28;20024;-58
2023/10/21 05:34:53;;;;;;;15.80;6.63;;;14.10;99.90;;;;;;4226698;27;20080;-58
2023/10/21 05:36:54;;;;;;;16.57;7.13;;;14.10;99.90;;;;;;4227775;28;20052;-59
2023/10/21 05:38:56;;;;;;;18.00;7.63;;;14.20;99.90;;;;;;4226487;28;20047;-58
2023/10/21 05:40:57;;;;;;;23.47;7.73;;;14.40;99.90;;;;;;4227863;28;20090;-58
2023/10/21 05:42:59;;;;;;;25.00;7.70;;;14.50;99.90;;;;;;4226183;28;20476;-60
2023/10/21 05:45:00;;;;;;;21.15;7.75;;;14.60;99.90;;;;;;4227501;28;20101;-59
2023/10/21 05:47:01;;;;;;;20.98;8.25;;;14.80;99.90;;;;;;4226061;28;20409;-59
2023/10/21 05:49:02;;;;;;;21.25;7.40;;;14.90;99.90;;;;;;4227279;28;20382;-60
2023/10/21 05:51:04;;;;;;;25.80;9.10;;;15.00;99.90;;;;;;4227587;28;20168;-59
2023/10/21 05:53:05;;;;;;;31.02;11.63;;;15.00;99.90;;;;;;4230342;28;20035;-59
2023/10/21 05:55:06;;;;;;;24.73;11.88;;;15.10;99.90;;;;;;4230181;28;20398;-59
2023/10/21 05:57:07;;;;;;;30.33;12.65;;;15.30;99.90;;;;;;4229888;28;20035;-60
2023/10/21 05:59:09;;;;;;;40.35;11.40;;;15.30;99.90;;;;;;4230249;28;20039;-60
2023/10/21 06:01:11;;;;;;;29.52;12.32;;;15.40;99.90;;;;;;4229464;28;20341;-58
2023/10/21 06:03:13;;;;;;;24.05;10.07;;;16.00;99.90;;;;;;4230620;28;20184;-59
2023/10/21 06:05:14;;;;;;;30.20;9.80;;;16.00;99.90;;;;;;4229615;28;20040;-59
2023/10/21 06:07:15;;;;;;;20.33;8.60;;;16.10;99.90;;;;;;4230765;27;20067;-59
2023/10/21 06:09:17;;;;;;;35.42;8.63;;;16.30;99.90;;;;;;4228948;27;20100;-56
2023/10/21 06:11:18;;;;;;;24.40;8.30;;;16.50;99.90;;;;;;4230633;28;20077;-58
2023/10/21 06:13:19;;;;;;;17.35;8.43;;;17.00;99.90;;;;;;4229703;27;20073;-56
2023/10/21 06:15:20;;;;;;;14.07;5.68;;;17.50;99.90;;;;;;4230331;28;20087;-58
2023/10/21 06:17:21;;;;;;;20.58;6.93;;;18.10;99.90;;;;;;4229284;28;20040;-60
2023/10/21 06:19:23;;;;;;;20.63;8.35;;;18.50;99.90;;;;;;4230437;28;20528;-60
2023/10/21 06:21:24;;;;;;;17.23;7.60;;;18.90;99.90;;;;;;4229610;27;20497;-60
2023/10/21 06:23:25;;;;;;;15.38;6.07;;;19.30;99.90;;;;;;4229797;28;20442;-59
2023/10/21 06:25:26;;;;;;;19.52;6.70;;;19.40;99.90;;;;;;4229899;27;20039;-60
2023/10/21 06:27:28;;;;;;;20.52;6.25;;;19.20;99.90;;;;;;4227963;28;20040;-60
2023/10/21 06:29:30;;;;;;;16.92;7.63;;;18.70;99.90;;;;;;4229896;28;20035;-60
2023/10/21 06:31:31;;;;;;;20.70;7.18;;;18.70;99.90;;;;;;4229133;28;20397;-60
2023/10/21 06:33:34;;;;;;;25.23;6.93;;;18.40;99.90;;;;;;4230169;28;20090;-61
2023/10/21 06:35:38;;;;;;;23.48;7.35;;;18.40;99.90;;;;;;4229227;28;20096;-60
2023/10/21 06:37:39;;;;;;;23.85;8.02;;;18.40;99.90;;;;;;4230702;27;20426;-58
2023/10/21 06:39:40;;;;;;;33.75;8.10;;;18.30;99.90;;;;;;4229046;28;20073;-59
2023/10/21 06:41:42;;;;;;;17.92;7.07;;;18.30;99.90;;;;;;4230513;27;20028;-60
2023/10/21 06:43:43;;;;;;;21.58;7.43;;;18.40;99.90;;;;;;4229079;27;20043;-58
2023/10/21 06:45:45;;;;;;;25.17;7.53;;;18.20;99.90;;;;;;4229971;28;20140;-60
2023/10/21 06:47:46;;;;;;;42.50;23.48;;;17.90;99.90;;;;;;4228900;28;20516;-58
2023/10/21 06:49:47;;;;;;;20.63;7.75;;;17.80;99.90;;;;;;4229481;28;20077;-60
2023/10/21 06:51:52;;;;;;;18.30;6.13;;;17.70;99.90;;;;;;4229367;27;20067;-60
2023/10/21 06:53:53;;;;;;;17.38;8.45;;;17.60;99.90;;;;;;4229374;28;20032;-59
2023/10/21 06:55:54;;;;;;;30.63;10.02;;;17.70;99.90;;;;;;4228860;28;20043;-60
2023/10/21 06:57:55;;;;;;;23.98;7.95;;;18.00;99.90;;;;;;4229335;28;20551;-60
2023/10/21 06:59:56;;;;;;;17.35;6.40;;;18.30;99.90;;;;;;4229054;28;20027;-60
2023/10/21 07:01:57;;;;;;;12.13;5.32;;;18.70;99.90;;;;;;4228276;28;20048;-59
2023/10/21 07:03:58;;;;;;;15.30;5.10;;;19.20;99.90;;;;;;4228581;28;20119;-59
2023/10/21 07:05:59;;;;;;;15.93;5.15;;;19.50;99.90;;;;;;4228618;28;20381;-60
2023/10/21 07:08:01;;;;;;;23.45;5.45;;;19.50;99.90;;;;;;4229302;28;20045;-61
2023/10/21 07:10:03;;;;;;;16.13;5.60;;;19.70;99.90;;;;;;4228367;28;20031;-59
2023/10/21 07:12:04;;;;;;;12.57;4.90;;;19.90;99.90;;;;;;4229834;28;20032;-60
2023/10/21 07:14:06;;;;;;;11.15;4.03;;;20.30;99.90;;;;;;4228899;27;20051;-60
2023/10/21 07:16:10;;;;;;;17.63;3.58;;;20.50;99.90;;;;;;4229757;27;20455;-59
2023/10/21 07:18:11;;;;;;;12.30;3.63;;;20.70;99.90;;;;;;4228076;28;20109;-57
2023/10/21 07:20:13;;;;;;;12.45;4.03;;;20.80;99.90;;;;;;4228153;28;20028;-60
2023/10/21 07:22:14;;;;;;;14.63;5.45;;;20.90;99.90;;;;;;4228854;28;20044;-60
2023/10/21 07:24:16;;;;;;;13.13;3.97;;;20.90;99.90;;;;;;4228829;28;20533;-59
2023/10/21 07:26:17;;;;;;;11.57;4.00;;;21.30;99.90;;;;;;4228611;28;20044;-60
2023/10/21 07:28:18;;;;;;;16.83;4.70;;;21.60;99.90;;;;;;4228790;28;20028;-61
2023/10/21 07:30:20;;;;;;;17.98;8.13;;;21.70;99.90;;;;;;4228733;27;20394;-59
2023/10/21 07:32:23;;;;;;;31.92;14.57;;;22.00;99.90;;;;;;4227939;28;20105;-61
2023/10/21 07:34:24;;;;;;;20.08;6.80;;;22.10;99.90;;;;;;4228466;28;20036;-59
2023/10/21 07:36:25;;;;;;;16.25;5.85;;;22.00;99.90;;;;;;4226738;27;20028;-59
2023/10/21 07:38:26;;;;;;;15.88;5.30;;;21.90;99.90;;;;;;4228546;28;20039;-60
2023/10/21 07:40:29;;;;;;;15.57;5.68;;;21.70;99.90;;;;;;4227972;28;20467;-60
2023/10/21 07:42:30;;;;;;;19.17;8.02;;;21.60;99.90;;;;;;4228913;27;20047;-60
2023/10/21 07:44:32;;;;;;;20.30;7.68;;;21.60;99.90;;;;;;4228027;27;20104;-61
2023/10/21 07:46:33;;;;;;;19.10;9.73;;;22.00;99.90;;;;;;4228888;28;20028;-61
2023/10/21 07:48:34;;;;;;;23.83;6.82;;;22.10;99.90;;;;;;4227128;28;20486;-61
2023/10/21 07:50:35;;;;;;;20.45;8.35;;;21.90;99.90;;;;;;4229081;28;20398;-60
2023/10/21 07:52:37;;;;;;;14.35;4.97;;;21.70;99.90;;;;;;4228359;28;20491;-62
2023/10/21 07:54:38;;;;;;;22.67;5.22;;;21.60;99.90;;;;;;4228780;28;20027;-61
2023/10/21 07:56:39;;;;;;;12.52;3.67;;;21.60;99.90;;;;;;4227907;28;20012;-59
2023/10/21 07:58:42;;;;;;;15.13;6.40;;;21.60;99.90;;;;;;4228140;28;20019;-61
2023/10/21 08:00:43;;;;;;;24.15;10.75;;;21.60;99.90;;;;;;4228142;27;20465;-59
2023/10/21 08:02:44;;;;;;;12.00;5.00;;;21.70;99.90;;;;;;4227936;28;20027;-60
2023/10/21 08:04:45;;;;;;;11.77;4.03;;;21.80;99.90;;;;;;4228350;28;20200;-60
2023/10/21 08:06:47;;;;;;;12.65;4.20;;;22.10;99.90;;;;;;4228020;27;20043;-62
2023/10/21 08:08:48;;;;;;;16.02;5.07;;;22.30;99.90;;;;;;4228480;28;20073;-60
2023/10/21 08:10:49;;;;;;;13.50;5.15;;;22.40;99.90;;;;;;4227325;28;20869;-59
2023/10/21 08:12:50;;;;;;;21.63;6.70;;;22.50;99.70;;;;;;4228640;28;20035;-60
2023/10/21 08:14:51;;;;;;;17.45;4.40;;;22.80;99.20;;;;;;4226953;28;20080;-59
2023/10/21 08:16:52;;;;;;;16.17;4.18;;;23.10;98.80;;;;;;4228558;28;20036;-60
2023/10/21 08:18:54;;;;;;;10.27;3.58;;;23.40;98.40;;;;;;4227123;28;20456;-59
2023/10/21 08:20:55;;;;;;;14.35;4.80;;;23.80;98.00;;;;;;4228879;27;20127;-59
2023/10/21 08:22:56;;;;;;;14.07;4.03;;;24.00;97.40;;;;;;4227640;27;20047;-60
2023/10/21 08:24:57;;;;;;;12.77;4.20;;;24.20;96.80;;;;;;4227935;28;20040;-59
2023/10/21 08:26:59;;;;;;;15.95;5.68;;;24.30;96.30;;;;;;4227340;27;20112;-58
2023/10/21 08:29:00;;;;;;;13.85;4.45;;;24.40;96.00;;;;;;4227978;28;20036;-60
2023/10/21 08:31:01;;;;;;;16.85;5.22;;;24.50;95.80;;;;;;4227784;28;20039;-60
2023/10/21 08:33:05;;;;;;;11.00;3.20;;;24.70;95.40;;;;;;4227972;27;20036;-60
2023/10/21 08:35:06;;;;;;;11.57;3.45;;;24.80;95.10;;;;;;4227966;27;20040;-59
2023/10/21 08:37:07;;;;;;;7.28;3.33;;;24.80;94.90;;;;;;4227440;28;20080;-59
2023/10/21 08:39:09;;;;;;;12.40;3.58;;;24.90;94.80;;;;;;4227901;28;20338;-58
2023/10/21 08:41:14;;;;;;;9.50;3.40;;;25.00;94.60;;;;;;4227105;28;20453;-59
2023/10/21 08:43:21;;;;;;;13.30;4.57;;;25.20;94.40;;;;;;4227956;28;20040;-60
2023/10/21 08:45:23;;;;;;;14.65;3.97;;;25.40;94.40;;;;;;4226593;28;20036;-59
2023/10/21 08:47:25;;;;;;;12.13;4.20;;;25.70;94.00;;;;;;4227806;28;20414;-58
2023/10/21 08:49:27;;;;;;;11.60;4.22;;;26.00;93.70;;;;;;4226843;27;20109;-59
2023/10/21 08:51:29;;;;;;;12.25;4.05;;;26.20;93.40;;;;;;4228224;28;20096;-60
2023/10/21 08:53:33;;;;;;;11.75;3.25;;;26.30;93.20;;;;;;4227028;27;20509;-60
2023/10/21 08:55:35;;;;;;;13.68;3.53;;;26.50;92.90;;;;;;4228359;27;20044;-59
2023/10/21 08:57:36;;;;;;;18.00;4.07;;;26.50;92.70;;;;;;4226936;28;20484;-59
2023/10/21 08:59:39;;;;;;;11.32;3.33;;;26.60;92.40;;;;;;4227903;28;20363;-59
2023/10/21 09:01:40;;;;;;;14.07;3.83;;;26.80;91.90;;;;;;4226480;28;20498;-59
2023/10/21 09:03:45;;;;;;;11.70;3.67;;;26.90;91.70;;;;;;4227579;28;20040;-60
2023/10/21 09:06:12;;;;;;;10.50;3.40;;;27.00;91.10;;;;;;4227328;27;20108;-59
2023/10/21 09:08:15;;;;;;;17.75;2.75;;;27.20;90.30;;;;;;4227636;28;20036;-59
2023/10/21 09:10:17;;;;;;;12.00;2.90;;;27.40;90.50;;;;;;4227185;28;20028;-60
2023/10/21 09:12:18;;;;;;;11.77;3.20;;;27.60;90.30;;;;;;4227626;28;20019;-60
2023/10/21 09:14:19;;;;;;;12.18;3.63;;;27.80;90.00;;;;;;4227371;28;20108;-60
2023/10/21 09:16:28;;;;;;;10.73;2.20;;;28.00;89.50;;;;;;4227568;27;20040;-60
2023/10/21 09:18:30;;;;;;;11.10;2.28;;;28.10;88.10;;;;;;4227435;28;20069;-60
2023/10/21 09:20:34;;;;;;;11.65;2.70;;;28.20;88.00;;;;;;4227217;28;20061;-61
2023/10/21 09:22:36;;;;;;;10.75;2.72;;;28.30;87.40;;;;;;4228062;28;20024;-61
2023/10/21 09:24:37;;;;;;;12.45;3.20;;;28.60;86.90;;;;;;4226430;28;20445;-60
2023/10/21 09:26:45;;;;;;;8.80;2.30;;;28.70;86.20;;;;;;4227389;28;20445;-59
2023/10/21 09:28:46;;;;;;;10.55;2.40;;;28.80;86.10;;;;;;4227128;28;20044;-59
2023/10/21 09:31:01;;;;;;;15.52;2.40;;;29.20;85.70;;;;;;4228259;28;20108;-60
2023/10/21 09:33:04;;;;;;;10.75;2.30;;;29.30;83.00;;;;;;4226737;28;20048;-59
2023/10/21 09:35:16;;;;;;;9.32;2.00;;;29.40;84.40;;;;;;4227841;28;20479;-59
2023/10/21 09:37:26;;;;;;;9.52;2.15;;;29.40;83.50;;;;;;4226739;28;20100;-61
2023/10/21 09:39:32;;;;;;;13.13;2.47;;;29.40;82.80;;;;;;4227664;28;20077;-60
2023/10/21 09:41:35;;;;;;;8.52;2.75;;;29.40;83.50;;;;;;4226412;28;20058;-61
2023/10/21 09:43:38;;;;;;;9.50;2.00;;;29.50;83.30;;;;;;4227965;28;20100;-62
2023/10/21 09:45:42;;;;;;;8.85;2.58;;;29.60;83.20;;;;;;4226665;28;20414;-60
2023/10/21 09:47:45;;;;;;;6.97;2.30;;;29.60;82.20;;;;;;4226464;28;20116;-59
2023/10/21 09:49:51;;;;;;;5.88;2.22;;;29.70;81.80;;;;;;4226405;28;20036;-60
2023/10/21 09:52:10;;;;;;;7.75;1.88;;;29.80;81.70;;;;;;4228108;28;20085;-61
2023/10/21 09:54:13;;;;;;;7.88;2.00;;;29.80;80.40;;;;;;4226193;28;20039;-60
2023/10/21 09:56:17;;;;;;;7.05;2.63;;;29.80;80.70;;;;;;4227042;28;20453;-60
2023/10/21 09:58:19;;;;;;;8.55;1.80;;;29.70;80.40;;;;;;4226181;28;20039;-61
2023/10/21 10:00:22;;;;;;;12.10;2.83;;;29.60;79.80;;;;;;4227275;28;20464;-61
2023/10/21 10:02:24;;;;;;;8.77;1.80;;;29.50;79.40;;;;;;4226148;28;20487;-59
2023/10/21 10:04:27;;;;;;;15.52;2.55;;;29.20;79.40;;;;;;4227102;28;20460;-60
2023/10/21 10:06:31;;;;;;;8.88;2.78;;;29.10;79.70;;;;;;4226193;28;20104;-61
2023/10/21 10:08:33;;;;;;;7.30;2.38;;;28.80;79.50;;;;;;4226322;28;20472;-60
2023/10/21 10:10:38;;;;;;;8.45;2.28;;;28.70;79.60;;;;;;4226226;28;20485;-59
2023/10/21 10:13:11;;;;;;;14.05;2.65;;;28.60;79.80;;;;;;4226557;28;20040;-58
2023/10/21 10:15:34;;;;;;;13.00;2.42;;;28.40;79.20;;;;;;4216567;28;20119;-61
2023/10/21 10:17:48;;;;;;;13.20;2.35;;;28.40;79.70;;;;;;4226979;28;20540;-60
2023/10/21 10:19:51;;;;;;;10.40;1.80;;;28.30;80.00;;;;;;4225853;28;20085;-61
2023/10/21 10:21:52;;;;;;;13.45;2.58;;;28.20;80.80;;;;;;4227748;28;20405;-63
2023/10/21 10:24:00;;;;;;;11.98;2.55;;;28.10;80.90;;;;;;4226379;28;20048;-59
2023/10/21 10:26:02;;;;;;;10.30;2.20;;;28.10;80.80;;;;;;4226551;28;20039;-62
2023/10/21 10:28:05;;;;;;;15.32;3.55;;;28.20;80.90;;;;;;4226575;28;20106;-61